Prescott, Arizona
Current Conditions -  °F | °C
As of 12:53 PM on Thursday 23 Oct 2014 (Local Time) from KPRC Reporting Station
Clear Clear  
Wind Chill: 77°   Ceiling: Unl
Heat Index: 77°   Visibility: 10mi
Dew Point: 34°   Wind: 6mph
Humidity: 21%   Direction: 60°ENE
Pressure: 30.22"   Gusts: NA
Location:  34.54°N, 112.47°W
Report Text: KPRC 231953Z 06005KT 10SM CLR 25/01 A3022 RMK AO2 SLP168 T02500011
Loading
Personal Weather Stations






























Interactive Weather Map
Tropical Storm Tracking
New forecast layout! Learn more

10-Day Weather Forecast

Advertisements
Track Severe Weather on mobile